sensor_id;sensor_type;location;lat;lon;timestamp;pressure;altitude;pressure_sealevel;temperature;humidity
57290;BME280;43523;53.022;-1.178;2023-03-21T00:00:38;100278.52;;;5.57;100.00
57290;BME280;43523;53.022;-1.178;2023-03-21T00:01:40;100282.45;;;5.27;100.00
57290;BME280;43523;53.022;-1.178;2023-03-21T00:02:44;100281.40;;;5.59;100.00
57290;BME280;43523;53.022;-1.178;2023-03-21T00:03:47;100277.10;;;5.26;100.00
57290;BME280;43523;53.022;-1.178;2023-03-21T00:04:49;100276.03;;;5.47;100.00
57290;BME280;43523;53.022;-1.178;2023-03-21T00:05:52;100275.00;;;5.35;100.00
57290;BME280;43523;53.022;-1.178;2023-03-21T00:06:55;100271.16;;;5.18;100.00
57290;BME280;43523;53.022;-1.178;2023-03-21T00:07:58;100272.69;;;5.39;100.00
57290;BME280;43523;53.022;-1.178;2023-03-21T00:09:00;100268.08;;;5.53;100.00
57290;BME280;43523;53.022;-1.178;2023-03-21T00:10:04;100266.17;;;5.67;100.00
57290;BME280;43523;53.022;-1.178;2023-03-21T00:11:09;100262.62;;;5.25;100.00
57290;BME280;43523;53.022;-1.178;2023-03-21T00:12:12;100268.10;;;5.42;100.00
57290;BME280;43523;53.022;-1.178;2023-03-21T00:13:15;100267.48;;;5.26;100.00
57290;BME280;43523;53.022;-1.178;2023-03-21T00:14:17;100273.40;;;5.45;100.00
57290;BME280;43523;53.022;-1.178;2023-03-21T00:15:19;100269.76;;;5.47;100.00
57290;BME280;43523;53.022;-1.178;2023-03-21T00:16:22;100270.11;;;5.36;100.00
57290;BME280;43523;53.022;-1.178;2023-03-21T00:17:24;100269.37;;;5.52;100.00
57290;BME280;43523;53.022;-1.178;2023-03-21T00:18:27;100266.00;;;4.98;100.00
57290;BME280;43523;53.022;-1.178;2023-03-21T00:19:29;100261.46;;;5.12;100.00
57290;BME280;43523;53.022;-1.178;2023-03-21T00:20:32;100258.97;;;5.09;100.00
57290;BME280;43523;53.022;-1.178;2023-03-21T00:21:35;100269.30;;;4.89;100.00
57290;BME280;43523;53.022;-1.178;2023-03-21T00:22:37;100264.66;;;5.32;100.00
57290;BME280;43523;53.022;-1.178;2023-03-21T00:23:40;100262.86;;;4.96;100.00
57290;BME280;43523;53.022;-1.178;2023-03-21T00:24:44;100261.78;;;5.28;100.00
57290;BME280;43523;53.022;-1.178;2023-03-21T00:25:47;100265.87;;;5.34;100.00
57290;BME280;43523;53.022;-1.178;2023-03-21T00:26:49;100261.20;;;5.50;100.00
57290;BME280;43523;53.022;-1.178;2023-03-21T00:27:51;100265.21;;;5.38;100.00
57290;BME280;43523;53.022;-1.178;2023-03-21T00:28:54;100261.81;;;5.28;100.00
57290;BME280;43523;53.022;-1.178;2023-03-21T00:29:56;100261.37;;;5.26;100.00
57290;BME280;43523;53.022;-1.178;2023-03-21T00:30:59;100261.83;;;5.73;100.00
57290;BME280;43523;53.022;-1.178;2023-03-21T00:32:02;100269.80;;;5.29;100.00
57290;BME280;43523;53.022;-1.178;2023-03-21T00:33:05;100261.76;;;5.00;100.00
57290;BME280;43523;53.022;-1.178;2023-03-21T00:34:07;100261.11;;;5.22;100.00
57290;BME280;43523;53.022;-1.178;2023-03-21T00:35:09;100265.29;;;5.19;100.00
57290;BME280;43523;53.022;-1.178;2023-03-21T00:36:12;100265.08;;;5.05;100.00
57290;BME280;43523;53.022;-1.178;2023-03-21T00:37:15;100273.38;;;5.11;100.00
57290;BME280;43523;53.022;-1.178;2023-03-21T00:38:17;100271.34;;;4.78;100.00
57290;BME280;43523;53.022;-1.178;2023-03-21T00:39:20;100269.09;;;4.63;100.00
57290;BME280;43523;53.022;-1.178;2023-03-21T00:40:22;100262.98;;;4.89;100.00
57290;BME280;43523;53.022;-1.178;2023-03-21T00:41:24;100263.13;;;5.15;100.00
57290;BME280;43523;53.022;-1.178;2023-03-21T00:42:27;100264.67;;;5.19;100.00
57290;BME280;43523;53.022;-1.178;2023-03-21T00:43:29;100259.87;;;5.24;100.00
57290;BME280;43523;53.022;-1.178;2023-03-21T00:44:32;100258.30;;;5.32;100.00
57290;BME280;43523;53.022;-1.178;2023-03-21T00:45:35;100253.21;;;5.11;100.00
57290;BME280;43523;53.022;-1.178;2023-03-21T00:46:37;100253.49;;;5.48;100.00
57290;BME280;43523;53.022;-1.178;2023-03-21T00:47:39;100251.31;;;5.84;100.00
57290;BME280;43523;53.022;-1.178;2023-03-21T00:48:43;100249.58;;;5.61;100.00
57290;BME280;43523;53.022;-1.178;2023-03-21T00:49:45;100247.06;;;5.17;100.00
57290;BME280;43523;53.022;-1.178;2023-03-21T00:50:48;100245.81;;;4.97;100.00
57290;BME280;43523;53.022;-1.178;2023-03-21T00:51:52;100242.87;;;5.10;100.00
57290;BME280;43523;53.022;-1.178;2023-03-21T00:52:54;100238.91;;;5.88;100.00
57290;BME280;43523;53.022;-1.178;2023-03-21T00:53:58;100228.62;;;5.11;100.00
57290;BME280;43523;53.022;-1.178;2023-03-21T00:55:00;100232.53;;;5.58;100.00
57290;BME280;43523;53.022;-1.178;2023-03-21T00:56:03;100233.96;;;5.35;100.00
57290;BME280;43523;53.022;-1.178;2023-03-21T00:57:05;100231.59;;;5.42;100.00
57290;BME280;43523;53.022;-1.178;2023-03-21T00:58:07;100226.91;;;5.48;100.00
57290;BME280;43523;53.022;-1.178;2023-03-21T00:59:09;100225.32;;;5.03;100.00
57290;BME280;43523;53.022;-1.178;2023-03-21T01:00:14;100223.97;;;4.61;100.00
57290;BME280;43523;53.022;-1.178;2023-03-21T01:01:18;100223.67;;;4.62;100.00
57290;BME280;43523;53.022;-1.178;2023-03-21T01:02:20;100215.45;;;4.95;100.00
57290;BME280;43523;53.022;-1.178;2023-03-21T01:03:23;100215.84;;;4.88;100.00
57290;BME280;43523;53.022;-1.178;2023-03-21T01:04:26;100212.38;;;4.96;100.00
57290;BME280;43523;53.022;-1.178;2023-03-21T01:05:30;100212.07;;;4.98;100.00
57290;BME280;43523;53.022;-1.178;2023-03-21T01:06:35;100210.21;;;5.30;100.00
57290;BME280;43523;53.022;-1.178;2023-03-21T01:07:39;100209.23;;;5.14;100.00
57290;BME280;43523;53.022;-1.178;2023-03-21T01:08:44;100208.70;;;5.53;100.00
57290;BME280;43523;53.022;-1.178;2023-03-21T01:09:46;100205.60;;;4.99;100.00
57290;BME280;43523;53.022;-1.178;2023-03-21T01:10:50;100207.75;;;4.94;100.00
57290;BME280;43523;53.022;-1.178;2023-03-21T01:11:53;100206.77;;;5.03;100.00
57290;BME280;43523;53.022;-1.178;2023-03-21T01:12:55;100206.44;;;4.89;100.00
57290;BME280;43523;53.022;-1.178;2023-03-21T01:13:58;100204.50;;;5.12;100.00
57290;BME280;43523;53.022;-1.178;2023-03-21T01:15:01;100199.03;;;5.36;100.00
57290;BME280;43523;53.022;-1.178;2023-03-21T01:16:05;100199.26;;;5.10;100.00
57290;BME280;43523;53.022;-1.178;2023-03-21T01:17:07;100197.91;;;5.47;100.00
57290;BME280;43523;53.022;-1.178;2023-03-21T01:18:10;100191.67;;;5.52;100.00
57290;BME280;43523;53.022;-1.178;2023-03-21T01:19:14;100191.53;;;5.67;100.00
57290;BME280;43523;53.022;-1.178;2023-03-21T01:20:16;100189.00;;;5.15;100.00
57290;BME280;43523;53.022;-1.178;2023-03-21T01:21:19;100187.71;;;5.23;100.00
57290;BME280;43523;53.022;-1.178;2023-03-21T01:22:21;100192.59;;;5.23;100.00
57290;BME280;43523;53.022;-1.178;2023-03-21T01:23:24;100189.42;;;5.42;100.00
57290;BME280;43523;53.022;-1.178;2023-03-21T01:24:27;100185.08;;;4.78;100.00
57290;BME280;43523;53.022;-1.178;2023-03-21T01:25:29;100182.24;;;4.90;100.00
57290;BME280;43523;53.022;-1.178;2023-03-21T01:26:31;100179.71;;;5.34;100.00
57290;BME280;43523;53.022;-1.178;2023-03-21T01:27:34;100183.31;;;4.99;100.00
57290;BME280;43523;53.022;-1.178;2023-03-21T01:28:37;100173.89;;;5.18;100.00
57290;BME280;43523;53.022;-1.178;2023-03-21T01:29:39;100169.47;;;5.16;100.00
57290;BME280;43523;53.022;-1.178;2023-03-21T01:30:44;100166.67;;;5.47;100.00
57290;BME280;43523;53.022;-1.178;2023-03-21T01:31:47;100168.36;;;5.26;100.00
57290;BME280;43523;53.022;-1.178;2023-03-21T01:32:49;100168.77;;;5.24;100.00
57290;BME280;43523;53.022;-1.178;2023-03-21T01:33:52;100170.99;;;5.14;100.00
57290;BME280;43523;53.022;-1.178;2023-03-21T01:34:54;100162.33;;;4.97;100.00
57290;BME280;43523;53.022;-1.178;2023-03-21T01:35:57;100160.49;;;5.54;100.00
57290;BME280;43523;53.022;-1.178;2023-03-21T01:37:00;100159.37;;;5.31;100.00
57290;BME280;43523;53.022;-1.178;2023-03-21T01:38:03;100158.26;;;5.31;100.00
57290;BME280;43523;53.022;-1.178;2023-03-21T01:39:05;100154.68;;;5.11;100.00
57290;BME280;43523;53.022;-1.178;2023-03-21T01:40:10;100149.02;;;5.27;100.00
57290;BME280;43523;53.022;-1.178;2023-03-21T01:41:20;100151.11;;;4.84;100.00
57290;BME280;43523;53.022;-1.178;2023-03-21T01:42:25;100149.48;;;5.07;100.00
57290;BME280;43523;53.022;-1.178;2023-03-21T01:43:29;100141.55;;;5.00;100.00
57290;BME280;43523;53.022;-1.178;2023-03-21T01:44:51;100139.58;;;5.54;100.00
57290;BME280;43523;53.022;-1.178;2023-03-21T01:46:59;100138.74;;;5.28;100.00
57290;BME280;43523;53.022;-1.178;2023-03-21T01:48:01;100135.99;;;4.98;100.00
57290;BME280;43523;53.022;-1.178;2023-03-21T01:49:09;100135.63;;;4.95;100.00
57290;BME280;43523;53.022;-1.178;2023-03-21T01:50:13;100134.10;;;4.85;100.00
57290;BME280;43523;53.022;-1.178;2023-03-21T01:51:15;100133.96;;;5.30;100.00
57290;BME280;43523;53.022;-1.178;2023-03-21T01:52:20;100127.75;;;5.21;100.00
57290;BME280;43523;53.022;-1.178;2023-03-21T01:53:25;100124.78;;;5.22;100.00
57290;BME280;43523;53.022;-1.178;2023-03-21T01:54:34;100126.51;;;5.05;100.00
57290;BME280;43523;53.022;-1.178;2023-03-21T01:55:38;100122.58;;;5.20;100.00
57290;BME280;43523;53.022;-1.178;2023-03-21T01:56:44;100115.21;;;5.31;100.00
57290;BME280;43523;53.022;-1.178;2023-03-21T01:57:50;100120.18;;;4.92;100.00
57290;BME280;43523;53.022;-1.178;2023-03-21T01:59:00;100122.95;;;4.40;100.00
57290;BME280;43523;53.022;-1.178;2023-03-21T02:00:07;100117.80;;;4.76;100.00
57290;BME280;43523;53.022;-1.178;2023-03-21T02:01:09;100118.18;;;5.26;100.00
57290;BME280;43523;53.022;-1.178;2023-03-21T02:02:17;100113.34;;;4.92;100.00
57290;BME280;43523;53.022;-1.178;2023-03-21T02:03:20;100113.94;;;4.76;100.00
57290;BME280;43523;53.022;-1.178;2023-03-21T02:04:22;100116.40;;;5.05;100.00
57290;BME280;43523;53.022;-1.178;2023-03-21T02:05:31;100119.57;;;4.89;100.00
57290;BME280;43523;53.022;-1.178;2023-03-21T02:06:43;100127.68;;;4.55;100.00
57290;BME280;43523;53.022;-1.178;2023-03-21T02:07:49;100120.16;;;4.39;100.00
57290;BME280;43523;53.022;-1.178;2023-03-21T02:08:52;100116.81;;;4.78;100.00
57290;BME280;43523;53.022;-1.178;2023-03-21T02:09:55;100122.04;;;4.74;100.00
57290;BME280;43523;53.022;-1.178;2023-03-21T02:11:00;100116.95;;;4.70;100.00
57290;BME280;43523;53.022;-1.178;2023-03-21T02:12:03;100115.51;;;5.16;100.00
57290;BME280;43523;53.022;-1.178;2023-03-21T02:13:05;100113.30;;;4.91;100.00
57290;BME280;43523;53.022;-1.178;2023-03-21T02:14:13;100107.88;;;4.96;100.00
57290;BME280;43523;53.022;-1.178;2023-03-21T02:15:15;100105.90;;;5.37;100.00
57290;BME280;43523;53.022;-1.178;2023-03-21T02:16:23;100110.22;;;4.96;100.00
57290;BME280;43523;53.022;-1.178;2023-03-21T02:17:32;100105.91;;;5.63;100.00
57290;BME280;43523;53.022;-1.178;2023-03-21T02:18:40;100103.85;;;5.42;100.00
57290;BME280;43523;53.022;-1.178;2023-03-21T02:20:12;100104.59;;;4.48;100.00
57290;BME280;43523;53.022;-1.178;2023-03-21T02:24:30;100100.73;;;5.60;100.00
57290;BME280;43523;53.022;-1.178;2023-03-21T02:25:55;100102.70;;;4.55;100.00
57290;BME280;43523;53.022;-1.178;2023-03-21T02:27:07;100102.98;;;4.70;100.00
57290;BME280;43523;53.022;-1.178;2023-03-21T02:28:14;100101.91;;;5.24;100.00
57290;BME280;43523;53.022;-1.178;2023-03-21T02:30:40;100101.45;;;4.65;100.00
57290;BME280;43523;53.022;-1.178;2023-03-21T02:31:52;100098.01;;;4.59;100.00
57290;BME280;43523;53.022;-1.178;2023-03-21T02:33:16;100097.72;;;4.44;100.00
57290;BME280;43523;53.022;-1.178;2023-03-21T02:34:47;100093.96;;;4.36;100.00
57290;BME280;43523;53.022;-1.178;2023-03-21T02:36:07;100088.92;;;4.65;100.00
57290;BME280;43523;53.022;-1.178;2023-03-21T02:37:18;100090.72;;;4.98;100.00
57290;BME280;43523;53.022;-1.178;2023-03-21T02:38:26;100088.58;;;4.55;100.00
57290;BME280;43523;53.022;-1.178;2023-03-21T02:39:39;100086.48;;;4.50;100.00
57290;BME280;43523;53.022;-1.178;2023-03-21T02:40:49;100080.69;;;5.09;100.00
57290;BME280;43523;53.022;-1.178;2023-03-21T02:42:02;100088.19;;;4.89;100.00
57290;BME280;43523;53.022;-1.178;2023-03-21T02:43:14;100084.47;;;4.96;100.00
57290;BME280;43523;53.022;-1.178;2023-03-21T02:44:24;100080.10;;;4.62;100.00
57290;BME280;43523;53.022;-1.178;2023-03-21T02:45:36;100081.71;;;4.75;100.00
57290;BME280;43523;53.022;-1.178;2023-03-21T02:46:44;100080.29;;;4.89;100.00
57290;BME280;43523;53.022;-1.178;2023-03-21T02:47:50;100074.03;;;4.69;100.00
57290;BME280;43523;53.022;-1.178;2023-03-21T02:48:57;100078.43;;;4.60;100.00
57290;BME280;43523;53.022;-1.178;2023-03-21T02:50:05;100075.34;;;4.53;100.00
57290;BME280;43523;53.022;-1.178;2023-03-21T02:51:09;100075.84;;;4.65;100.00
57290;BME280;43523;53.022;-1.178;2023-03-21T02:52:17;100076.05;;;5.13;100.00
57290;BME280;43523;53.022;-1.178;2023-03-21T02:53:24;100073.60;;;4.60;100.00
57290;BME280;43523;53.022;-1.178;2023-03-21T02:54:31;100078.29;;;4.63;100.00
57290;BME280;43523;53.022;-1.178;2023-03-21T02:55:35;100076.15;;;4.79;100.00
57290;BME280;43523;53.022;-1.178;2023-03-21T02:56:39;100076.41;;;4.75;100.00
57290;BME280;43523;53.022;-1.178;2023-03-21T02:57:44;100071.34;;;5.29;100.00
57290;BME280;43523;53.022;-1.178;2023-03-21T02:58:48;100073.36;;;4.90;100.00
57290;BME280;43523;53.022;-1.178;2023-03-21T02:59:52;100072.07;;;4.97;100.00
57290;BME280;43523;53.022;-1.178;2023-03-21T03:00:55;100073.69;;;5.35;100.00
57290;BME280;43523;53.022;-1.178;2023-03-21T03:01:58;100071.85;;;4.95;100.00
57290;BME280;43523;53.022;-1.178;2023-03-21T03:03:02;100073.42;;;5.14;100.00
57290;BME280;43523;53.022;-1.178;2023-03-21T03:04:17;100071.10;;;4.81;100.00
57290;BME280;43523;53.022;-1.178;2023-03-21T03:05:22;100067.57;;;5.15;100.00
57290;BME280;43523;53.022;-1.178;2023-03-21T03:06:29;100063.83;;;5.15;100.00
57290;BME280;43523;53.022;-1.178;2023-03-21T03:07:41;100062.22;;;5.06;100.00
57290;BME280;43523;53.022;-1.178;2023-03-21T03:08:59;100064.88;;;4.61;100.00
57290;BME280;43523;53.022;-1.178;2023-03-21T03:10:20;100067.51;;;4.89;100.00
57290;BME280;43523;53.022;-1.178;2023-03-21T03:11:27;100072.62;;;5.21;100.00
57290;BME280;43523;53.022;-1.178;2023-03-21T03:12:36;100070.64;;;4.98;100.00
57290;BME280;43523;53.022;-1.178;2023-03-21T03:13:55;100077.31;;;4.85;100.00
57290;BME280;43523;53.022;-1.178;2023-03-21T03:15:06;100071.11;;;4.70;100.00
57290;BME280;43523;53.022;-1.178;2023-03-21T03:16:20;100066.53;;;4.80;100.00
57290;BME280;43523;53.022;-1.178;2023-03-21T03:17:35;100061.52;;;4.81;100.00
57290;BME280;43523;53.022;-1.178;2023-03-21T03:18:47;100058.27;;;4.53;100.00
57290;BME280;43523;53.022;-1.178;2023-03-21T03:20:04;100053.34;;;4.28;100.00
57290;BME280;43523;53.022;-1.178;2023-03-21T03:21:15;100052.05;;;5.21;100.00
57290;BME280;43523;53.022;-1.178;2023-03-21T03:22:23;100052.69;;;4.75;100.00
57290;BME280;43523;53.022;-1.178;2023-03-21T03:23:36;100060.17;;;4.37;100.00
57290;BME280;43523;53.022;-1.178;2023-03-21T03:24:46;100064.19;;;4.64;100.00
57290;BME280;43523;53.022;-1.178;2023-03-21T03:25:57;100059.86;;;4.81;100.00
57290;BME280;43523;53.022;-1.178;2023-03-21T03:27:07;100059.01;;;4.44;100.00
57290;BME280;43523;53.022;-1.178;2023-03-21T03:28:19;100054.65;;;4.65;100.00
57290;BME280;43523;53.022;-1.178;2023-03-21T03:29:25;100047.65;;;4.88;100.00
57290;BME280;43523;53.022;-1.178;2023-03-21T03:30:29;100049.55;;;4.70;100.00
57290;BME280;43523;53.022;-1.178;2023-03-21T03:31:34;100049.81;;;5.00;100.00
57290;BME280;43523;53.022;-1.178;2023-03-21T03:32:43;100044.73;;;5.20;100.00
57290;BME280;43523;53.022;-1.178;2023-03-21T03:33:47;100043.94;;;4.64;100.00
57290;BME280;43523;53.022;-1.178;2023-03-21T03:34:52;100043.31;;;4.54;100.00
57290;BME280;43523;53.022;-1.178;2023-03-21T03:35:55;100041.89;;;4.70;100.00
57290;BME280;43523;53.022;-1.178;2023-03-21T03:37:02;100045.48;;;4.26;100.00
57290;BME280;43523;53.022;-1.178;2023-03-21T03:38:11;100040.73;;;4.33;100.00
57290;BME280;43523;53.022;-1.178;2023-03-21T03:39:14;100039.68;;;4.55;100.00
57290;BME280;43523;53.022;-1.178;2023-03-21T03:40:21;100040.79;;;4.45;100.00
57290;BME280;43523;53.022;-1.178;2023-03-21T03:41:26;100042.84;;;4.36;100.00
57290;BME280;43523;53.022;-1.178;2023-03-21T03:42:33;100034.39;;;4.65;100.00
57290;BME280;43523;53.022;-1.178;2023-03-21T03:43:40;100032.89;;;4.79;100.00
57290;BME280;43523;53.022;-1.178;2023-03-21T03:44:45;100032.30;;;4.81;100.00
57290;BME280;43523;53.022;-1.178;2023-03-21T03:45:50;100033.50;;;5.09;100.00
57290;BME280;43523;53.022;-1.178;2023-03-21T03:46:58;100033.04;;;5.00;100.00
57290;BME280;43523;53.022;-1.178;2023-03-21T03:48:06;100033.66;;;4.35;100.00
57290;BME280;43523;53.022;-1.178;2023-03-21T03:49:14;100037.52;;;4.90;100.00
57290;BME280;43523;53.022;-1.178;2023-03-21T03:50:23;100038.43;;;4.93;100.00
57290;BME280;43523;53.022;-1.178;2023-03-21T03:51:31;100029.20;;;4.86;100.00
57290;BME280;43523;53.022;-1.178;2023-03-21T03:52:37;100031.85;;;4.80;100.00
57290;BME280;43523;53.022;-1.178;2023-03-21T03:53:43;100030.44;;;4.45;100.00
57290;BME280;43523;53.022;-1.178;2023-03-21T03:54:49;100033.11;;;4.99;100.00
57290;BME280;43523;53.022;-1.178;2023-03-21T03:55:54;100023.85;;;4.92;100.00
57290;BME280;43523;53.022;-1.178;2023-03-21T03:56:57;100023.38;;;4.62;100.00
57290;BME280;43523;53.022;-1.178;2023-03-21T03:58:00;100024.53;;;5.29;100.00
57290;BME280;43523;53.022;-1.178;2023-03-21T03:59:04;100021.60;;;4.98;100.00
57290;BME280;43523;53.022;-1.178;2023-03-21T04:00:08;100021.04;;;4.70;100.00
57290;BME280;43523;53.022;-1.178;2023-03-21T04:01:11;100016.33;;;5.08;100.00
57290;BME280;43523;53.022;-1.178;2023-03-21T04:02:13;100012.34;;;4.83;100.00
57290;BME280;43523;53.022;-1.178;2023-03-21T04:03:15;100006.16;;;5.23;100.00
57290;BME280;43523;53.022;-1.178;2023-03-21T04:04:18;100014.37;;;4.61;100.00
57290;BME280;43523;53.022;-1.178;2023-03-21T04:05:20;100011.35;;;5.00;100.00
57290;BME280;43523;53.022;-1.178;2023-03-21T04:06:22;100014.61;;;5.32;100.00
57290;BME280;43523;53.022;-1.178;2023-03-21T04:07:25;100013.07;;;5.01;100.00
57290;BME280;43523;53.022;-1.178;2023-03-21T04:08:27;100018.12;;;4.94;100.00
57290;BME280;43523;53.022;-1.178;2023-03-21T04:09:30;100014.08;;;4.71;100.00
57290;BME280;43523;53.022;-1.178;2023-03-21T04:10:32;100013.18;;;4.52;100.00
57290;BME280;43523;53.022;-1.178;2023-03-21T04:11:35;100012.19;;;4.51;100.00
57290;BME280;43523;53.022;-1.178;2023-03-21T04:12:37;100009.15;;;4.71;100.00
57290;BME280;43523;53.022;-1.178;2023-03-21T04:13:41;100011.65;;;4.73;100.00
57290;BME280;43523;53.022;-1.178;2023-03-21T04:14:44;100006.28;;;4.95;100.00
57290;BME280;43523;53.022;-1.178;2023-03-21T04:15:46;100004.49;;;5.35;100.00
57290;BME280;43523;53.022;-1.178;2023-03-21T04:16:49;100001.95;;;5.17;100.00
57290;BME280;43523;53.022;-1.178;2023-03-21T04:17:51;99997.90;;;4.71;100.00
57290;BME280;43523;53.022;-1.178;2023-03-21T04:18:53;99995.95;;;4.74;100.00
57290;BME280;43523;53.022;-1.178;2023-03-21T04:19:56;99990.30;;;4.93;100.00
57290;BME280;43523;53.022;-1.178;2023-03-21T04:20:59;99988.14;;;5.26;100.00
57290;BME280;43523;53.022;-1.178;2023-03-21T04:22:01;99985.44;;;4.97;100.00
57290;BME280;43523;53.022;-1.178;2023-03-21T04:23:04;99986.72;;;4.88;100.00
57290;BME280;43523;53.022;-1.178;2023-03-21T04:24:07;99986.85;;;5.08;100.00
57290;BME280;43523;53.022;-1.178;2023-03-21T04:25:09;99994.06;;;5.23;100.00
57290;BME280;43523;53.022;-1.178;2023-03-21T04:26:13;99993.99;;;5.05;100.00
57290;BME280;43523;53.022;-1.178;2023-03-21T04:27:15;99988.25;;;5.11;100.00
57290;BME280;43523;53.022;-1.178;2023-03-21T04:28:18;99987.99;;;5.15;100.00
57290;BME280;43523;53.022;-1.178;2023-03-21T04:29:20;99991.44;;;5.08;100.00
57290;BME280;43523;53.022;-1.178;2023-03-21T04:30:23;99984.63;;;4.91;100.00
57290;BME280;43523;53.022;-1.178;2023-03-21T04:31:25;99988.52;;;5.40;100.00
57290;BME280;43523;53.022;-1.178;2023-03-21T04:32:29;99989.09;;;5.45;100.00
57290;BME280;43523;53.022;-1.178;2023-03-21T04:33:32;99988.23;;;4.71;100.00
57290;BME280;43523;53.022;-1.178;2023-03-21T04:34:34;99986.07;;;5.04;100.00
57290;BME280;43523;53.022;-1.178;2023-03-21T04:35:36;99984.36;;;5.23;100.00
57290;BME280;43523;53.022;-1.178;2023-03-21T04:36:39;99987.38;;;4.95;100.00
57290;BME280;43523;53.022;-1.178;2023-03-21T04:37:43;99982.94;;;4.93;100.00
57290;BME280;43523;53.022;-1.178;2023-03-21T04:38:46;99984.16;;;4.74;100.00
57290;BME280;43523;53.022;-1.178;2023-03-21T04:39:48;99984.76;;;4.58;100.00
57290;BME280;43523;53.022;-1.178;2023-03-21T04:40:51;99984.59;;;4.85;100.00
57290;BME280;43523;53.022;-1.178;2023-03-21T04:41:54;99981.02;;;4.66;100.00
57290;BME280;43523;53.022;-1.178;2023-03-21T04:42:56;99981.17;;;4.08;100.00
57290;BME280;43523;53.022;-1.178;2023-03-21T04:43:59;99976.17;;;4.68;100.00
57290;BME280;43523;53.022;-1.178;2023-03-21T04:45:02;99970.49;;;4.64;100.00
57290;BME280;43523;53.022;-1.178;2023-03-21T04:46:05;99968.14;;;4.82;100.00
57290;BME280;43523;53.022;-1.178;2023-03-21T04:47:07;99969.13;;;4.93;100.00
57290;BME280;43523;53.022;-1.178;2023-03-21T04:48:09;99968.55;;;4.89;100.00
57290;BME280;43523;53.022;-1.178;2023-03-21T04:49:12;99974.02;;;5.03;100.00
57290;BME280;43523;53.022;-1.178;2023-03-21T04:50:16;99965.08;;;5.00;100.00
57290;BME280;43523;53.022;-1.178;2023-03-21T04:51:18;99964.52;;;4.38;100.00
57290;BME280;43523;53.022;-1.178;2023-03-21T04:52:20;99964.15;;;4.63;100.00
57290;BME280;43523;53.022;-1.178;2023-03-21T04:53:23;99964.74;;;5.14;100.00
57290;BME280;43523;53.022;-1.178;2023-03-21T04:54:25;99958.74;;;5.25;100.00
57290;BME280;43523;53.022;-1.178;2023-03-21T04:55:29;99955.55;;;5.37;100.00
57290;BME280;43523;53.022;-1.178;2023-03-21T04:56:31;99956.18;;;5.14;100.00
57290;BME280;43523;53.022;-1.178;2023-03-21T04:57:34;99952.96;;;5.59;100.00
57290;BME280;43523;53.022;-1.178;2023-03-21T04:58:36;99948.12;;;5.61;100.00
57290;BME280;43523;53.022;-1.178;2023-03-21T04:59:39;99950.21;;;4.78;100.00
57290;BME280;43523;53.022;-1.178;2023-03-21T05:00:42;99950.41;;;4.81;100.00
57290;BME280;43523;53.022;-1.178;2023-03-21T05:01:44;99950.65;;;4.42;100.00
57290;BME280;43523;53.022;-1.178;2023-03-21T05:02:47;99948.97;;;4.94;100.00
57290;BME280;43523;53.022;-1.178;2023-03-21T05:03:49;99952.55;;;5.29;100.00
57290;BME280;43523;53.022;-1.178;2023-03-21T05:04:52;99948.75;;;5.38;100.00
57290;BME280;43523;53.022;-1.178;2023-03-21T05:05:54;99945.15;;;5.17;100.00
57290;BME280;43523;53.022;-1.178;2023-03-21T05:06:57;99946.33;;;4.66;100.00
57290;BME280;43523;53.022;-1.178;2023-03-21T05:07:59;99941.60;;;5.31;100.00
57290;BME280;43523;53.022;-1.178;2023-03-21T05:09:04;99943.10;;;5.30;100.00
57290;BME280;43523;53.022;-1.178;2023-03-21T05:10:09;99945.48;;;5.39;100.00
57290;BME280;43523;53.022;-1.178;2023-03-21T05:11:12;99948.47;;;5.59;100.00
57290;BME280;43523;53.022;-1.178;2023-03-21T05:12:14;99948.64;;;4.92;100.00
57290;BME280;43523;53.022;-1.178;2023-03-21T05:13:17;99945.05;;;5.15;100.00
57290;BME280;43523;53.022;-1.178;2023-03-21T05:14:21;99943.92;;;5.30;100.00
57290;BME280;43523;53.022;-1.178;2023-03-21T05:15:24;99943.66;;;4.62;100.00
57290;BME280;43523;53.022;-1.178;2023-03-21T05:16:27;99942.41;;;5.37;100.00
57290;BME280;43523;53.022;-1.178;2023-03-21T05:17:29;99940.28;;;4.83;100.00
57290;BME280;43523;53.022;-1.178;2023-03-21T05:18:32;99944.40;;;4.92;100.00
57290;BME280;43523;53.022;-1.178;2023-03-21T05:19:34;99941.05;;;4.92;100.00
57290;BME280;43523;53.022;-1.178;2023-03-21T05:20:37;99942.33;;;5.06;100.00
57290;BME280;43523;53.022;-1.178;2023-03-21T05:21:40;99938.35;;;5.39;100.00
57290;BME280;43523;53.022;-1.178;2023-03-21T05:22:44;99938.36;;;5.87;100.00
57290;BME280;43523;53.022;-1.178;2023-03-21T05:23:47;99937.94;;;5.76;100.00
57290;BME280;43523;53.022;-1.178;2023-03-21T05:24:49;99934.56;;;5.67;100.00
57290;BME280;43523;53.022;-1.178;2023-03-21T05:25:51;99937.29;;;5.38;100.00
57290;BME280;43523;53.022;-1.178;2023-03-21T05:26:54;99936.28;;;5.15;100.00
57290;BME280;43523;53.022;-1.178;2023-03-21T05:27:57;99936.01;;;5.09;100.00
57290;BME280;43523;53.022;-1.178;2023-03-21T05:28:59;99934.53;;;4.96;100.00
57290;BME280;43523;53.022;-1.178;2023-03-21T05:30:04;99935.97;;;4.93;100.00
57290;BME280;43523;53.022;-1.178;2023-03-21T05:31:07;99932.64;;;5.46;100.00
57290;BME280;43523;53.022;-1.178;2023-03-21T05:32:09;99928.94;;;5.14;100.00
57290;BME280;43523;53.022;-1.178;2023-03-21T05:33:12;99925.25;;;5.57;100.00
57290;BME280;43523;53.022;-1.178;2023-03-21T05:34:15;99924.46;;;5.09;100.00
57290;BME280;43523;53.022;-1.178;2023-03-21T05:35:17;99919.29;;;5.59;100.00
57290;BME280;43523;53.022;-1.178;2023-03-21T05:36:19;99918.67;;;5.62;100.00
57290;BME280;43523;53.022;-1.178;2023-03-21T05:37:22;99918.51;;;5.80;100.00
57290;BME280;43523;53.022;-1.178;2023-03-21T05:38:25;99918.32;;;5.61;100.00
57290;BME280;43523;53.022;-1.178;2023-03-21T05:39:27;99918.88;;;5.27;100.00
57290;BME280;43523;53.022;-1.178;2023-03-21T05:40:30;99916.68;;;5.12;100.00
57290;BME280;43523;53.022;-1.178;2023-03-21T05:41:32;99917.30;;;5.77;100.00